createdAt,value
2022-11-25T00:01:12.575Z,2.55
2022-11-25T00:03:40.277Z,2.50
2022-11-25T00:06:20.166Z,2.70
2022-11-25T00:08:49.545Z,3.15
2022-11-25T00:11:17.191Z,2.80
2022-11-25T00:13:44.924Z,2.58
2022-11-25T00:16:14.807Z,2.97
2022-11-25T00:18:48.639Z,2.75
2022-11-25T00:21:18.430Z,2.78
2022-11-25T00:23:50.481Z,3.30
2022-11-25T00:26:17.709Z,2.88
2022-11-25T00:28:45.868Z,2.95
2022-11-25T00:31:19.012Z,2.53
2022-11-25T00:33:46.505Z,2.55
2022-11-25T00:36:21.610Z,3.13
2022-11-25T00:38:52.802Z,2.17
2022-11-25T00:41:38.345Z,2.60
2022-11-25T00:44:23.735Z,2.58
2022-11-25T00:46:50.552Z,3.35
2022-11-25T00:49:17.433Z,3.10
2022-11-25T00:51:44.397Z,2.78
2022-11-25T00:54:13.081Z,2.55
2022-11-25T00:56:40.157Z,2.33
2022-11-25T00:59:07.799Z,1.92
2022-11-25T01:01:35.574Z,2.03
2022-11-25T01:04:03.054Z,2.33
2022-11-25T01:06:30.078Z,2.08
2022-11-25T01:08:57.107Z,2.10
2022-11-25T01:11:24.675Z,1.52
2022-11-25T01:13:56.648Z,1.83
2022-11-25T01:16:28.176Z,1.95
2022-11-25T01:18:55.082Z,1.88
2022-11-25T01:21:24.930Z,2.08
2022-11-25T01:23:52.110Z,2.47
2022-11-25T01:26:28.655Z,1.70
2022-11-25T01:29:07.093Z,1.90
2022-11-25T01:31:37.602Z,1.40
2022-11-25T01:34:15.612Z,1.92
2022-11-25T01:36:42.695Z,2.25
2022-11-25T01:39:18.354Z,1.85
2022-11-25T01:41:46.138Z,2.17
2022-11-25T01:44:25.724Z,2.25
2022-11-25T01:47:10.817Z,2.00
2022-11-25T01:49:46.621Z,1.58
2022-11-25T01:52:27.885Z,2.20
2022-11-25T01:55:01.849Z,1.52
2022-11-25T01:57:35.763Z,1.67
2022-11-25T02:00:05.006Z,1.48
2022-11-25T02:02:45.652Z,1.40
2022-11-25T02:05:16.542Z,1.90
2022-11-25T02:07:47.376Z,1.60
2022-11-25T02:10:24.101Z,1.65
2022-11-25T02:12:51.887Z,1.52
2022-11-25T02:15:20.510Z,1.27
2022-11-25T02:17:47.474Z,1.40
2022-11-25T02:20:17.287Z,1.25
2022-11-25T02:23:10.783Z,1.70
2022-11-25T02:25:40.424Z,1.20
2022-11-25T02:28:19.257Z,1.27
2022-11-25T02:30:47.201Z,1.20
2022-11-25T02:33:15.384Z,0.90
2022-11-25T02:35:59.423Z,1.20
2022-11-25T02:38:40.751Z,1.10
2022-11-25T02:41:26.141Z,1.30
2022-11-25T02:43:59.092Z,1.20
2022-11-25T02:46:28.325Z,1.20
2022-11-25T02:49:12.995Z,1.10
2022-11-25T02:51:45.032Z,1.20
2022-11-25T02:54:14.212Z,1.08
2022-11-25T02:56:43.134Z,1.20
2022-11-25T02:59:10.714Z,1.30
2022-11-25T03:01:39.070Z,1.35
2022-11-25T03:04:08.092Z,1.30
2022-11-25T03:06:36.509Z,1.25
2022-11-25T03:09:03.931Z,1.45
2022-11-25T03:11:49.797Z,1.73
2022-11-25T03:14:17.066Z,1.52
2022-11-25T03:16:44.133Z,1.23
2022-11-25T03:19:11.666Z,1.35
2022-11-25T03:21:38.557Z,1.45
2022-11-25T03:24:05.864Z,1.40
2022-11-25T03:26:32.843Z,1.60
2022-11-25T03:28:59.720Z,1.55
2022-11-25T03:31:27.588Z,1.65
2022-11-25T03:33:55.759Z,1.67
2022-11-25T03:36:22.604Z,2.00
2022-11-25T03:38:49.520Z,1.40
2022-11-25T03:41:16.330Z,1.60
2022-11-25T03:43:43.183Z,1.70
2022-11-25T03:46:10.164Z,1.63
2022-11-25T03:48:37.316Z,1.88
2022-11-25T03:51:04.259Z,2.03
2022-11-25T03:53:31.307Z,1.52
2022-11-25T03:56:00.794Z,1.90
2022-11-25T03:58:27.950Z,1.40
2022-11-25T04:01:00.828Z,1.55
2022-11-25T04:03:28.404Z,1.80
2022-11-25T04:05:55.315Z,1.73
2022-11-25T04:08:22.871Z,1.67
2022-11-25T04:10:51.036Z,1.65
2022-11-25T04:13:22.171Z,1.83
2022-11-25T04:15:51.514Z,1.50
2022-11-25T04:18:20.025Z,1.98
2022-11-25T04:20:50.229Z,1.80
2022-11-25T04:23:17.072Z,1.80
2022-11-25T04:26:06.604Z,1.48
2022-11-25T04:28:37.694Z,1.50
2022-11-25T04:31:08.857Z,2.00
2022-11-25T04:33:38.851Z,2.00
2022-11-25T04:36:06.171Z,1.67
2022-11-25T04:38:33.125Z,2.35
2022-11-25T04:41:01.546Z,1.58
2022-11-25T04:43:32.052Z,1.90
2022-11-25T04:46:14.048Z,2.72
2022-11-25T04:48:44.876Z,1.80
2022-11-25T04:51:13.418Z,1.60
2022-11-25T04:53:40.587Z,1.50
2022-11-25T04:56:10.245Z,1.75
2022-11-25T04:59:01.090Z,1.80
2022-11-25T05:01:28.120Z,1.95
2022-11-25T05:04:03.324Z,1.75
2022-11-25T05:06:30.138Z,1.58
2022-11-25T05:08:57.082Z,2.10
2022-11-25T05:11:25.823Z,2.20
2022-11-25T05:13:53.775Z,2.00
2022-11-25T05:16:20.831Z,1.98
2022-11-25T05:18:47.681Z,1.92
2022-11-25T05:21:14.564Z,1.63
2022-11-25T05:23:42.968Z,1.60
2022-11-25T05:26:10.089Z,2.05
2022-11-25T05:28:43.719Z,1.65
2022-11-25T05:31:11.672Z,1.65
2022-11-25T05:33:38.701Z,1.92
2022-11-25T05:36:07.527Z,1.83
2022-11-25T05:38:42.041Z,2.10
2022-11-25T05:41:11.593Z,2.08
2022-11-25T05:43:40.583Z,1.85
2022-11-25T05:46:09.183Z,1.80
2022-11-25T05:48:40.150Z,1.35
2022-11-25T05:51:09.102Z,1.52
2022-11-25T05:53:36.754Z,2.00
2022-11-25T05:56:06.411Z,1.60
2022-11-25T05:59:05.803Z,2.03
2022-11-25T06:01:55.306Z,1.30
2022-11-25T06:04:22.177Z,1.67
2022-11-25T06:06:49.006Z,1.70
2022-11-25T06:09:15.881Z,1.73
2022-11-25T06:11:42.750Z,1.75
2022-11-25T06:14:09.809Z,1.88
2022-11-25T06:16:36.909Z,1.85
2022-11-25T06:19:17.237Z,2.25
2022-11-25T06:21:44.459Z,1.88
2022-11-25T06:24:13.541Z,1.88
2022-11-25T06:26:42.229Z,1.67
2022-11-25T06:29:09.122Z,1.80
2022-11-25T06:31:36.432Z,2.40
2022-11-25T06:34:23.439Z,1.90
2022-11-25T06:36:50.709Z,1.98
2022-11-25T06:39:17.565Z,2.92
2022-11-25T06:41:44.367Z,1.83
2022-11-25T06:44:11.141Z,2.20
2022-11-25T06:46:38.289Z,1.67
2022-11-25T06:49:05.261Z,2.55
2022-11-25T06:51:32.141Z,2.70
2022-11-25T06:53:59.338Z,2.92
2022-11-25T06:56:28.195Z,2.33
2022-11-25T06:58:55.517Z,2.08
2022-11-25T07:01:28.006Z,2.38
2022-11-25T07:03:59.239Z,1.98
2022-11-25T07:06:26.746Z,2.30
2022-11-25T07:08:53.568Z,2.40
2022-11-25T07:11:35.078Z,2.33
2022-11-25T07:14:07.591Z,2.70
2022-11-25T07:16:34.834Z,2.08
2022-11-25T07:19:02.759Z,2.55
2022-11-25T07:21:31.979Z,2.05
2022-11-25T07:24:00.888Z,2.55
2022-11-25T07:26:32.804Z,2.22
2022-11-25T07:29:03.802Z,2.22
2022-11-25T07:31:34.112Z,2.20
2022-11-25T07:34:04.451Z,2.38
2022-11-25T07:36:33.138Z,2.65
2022-11-25T07:39:02.224Z,2.28
2022-11-25T07:41:31.792Z,2.65
2022-11-25T07:44:01.007Z,2.28
2022-11-25T07:46:39.546Z,2.40
2022-11-25T07:49:12.448Z,2.08
2022-11-25T07:51:47.259Z,2.50
2022-11-25T07:54:14.693Z,2.28
2022-11-25T07:56:43.060Z,2.97
2022-11-25T07:59:13.873Z,2.33
2022-11-25T08:01:41.545Z,2.55
2022-11-25T08:04:09.753Z,2.85
2022-11-25T08:06:42.905Z,2.05
2022-11-25T08:09:12.167Z,2.17
2022-11-25T08:11:39.705Z,1.95
2022-11-25T08:14:06.982Z,2.45
2022-11-25T08:16:34.071Z,2.78
2022-11-25T08:19:04.008Z,2.67
2022-11-25T08:21:30.977Z,1.80
2022-11-25T08:23:57.944Z,2.58
2022-11-25T08:26:27.459Z,3.20
2022-11-25T08:28:54.449Z,2.60
2022-11-25T08:31:27.144Z,2.30
2022-11-25T08:33:55.367Z,2.67
2022-11-25T08:36:23.647Z,2.47
2022-11-25T08:38:53.839Z,3.33
2022-11-25T08:41:28.902Z,3.08
2022-11-25T08:43:57.435Z,3.03
2022-11-25T08:46:27.692Z,3.08
2022-11-25T08:48:55.351Z,3.33
2022-11-25T08:51:25.211Z,2.33
2022-11-25T08:53:52.574Z,2.85
2022-11-25T08:56:25.778Z,2.90
2022-11-25T08:58:54.357Z,3.20
2022-11-25T09:01:22.839Z,2.72
2022-11-25T09:03:51.913Z,2.53
2022-11-25T09:06:20.272Z,2.50
2022-11-25T09:08:47.931Z,2.53
2022-11-25T09:11:15.495Z,2.85
2022-11-25T09:13:42.514Z,2.30
2022-11-25T09:16:10.186Z,2.22
2022-11-25T09:18:37.530Z,2.65
2022-11-25T09:21:10.189Z,2.35
2022-11-25T09:23:38.708Z,2.67
2022-11-25T09:26:07.126Z,2.90
2022-11-25T09:28:34.733Z,2.90
2022-11-25T09:31:08.088Z,2.50
2022-11-25T09:33:35.414Z,3.35
2022-11-25T09:36:03.785Z,2.58
2022-11-25T09:38:30.965Z,2.42
2022-11-25T09:42:04.452Z,2.33
2022-11-25T09:44:52.886Z,2.30
2022-11-25T09:47:47.033Z,3.20
2022-11-25T09:50:20.989Z,2.95
2022-11-25T09:53:35.055Z,2.78
2022-11-25T09:56:04.560Z,1.92
2022-11-25T09:59:09.350Z,2.58
2022-11-25T10:01:54.408Z,2.75
2022-11-25T10:04:47.002Z,2.05
2022-11-25T10:07:22.392Z,2.17
2022-11-25T10:09:49.300Z,3.08
2022-11-25T10:12:18.846Z,3.08
2022-11-25T10:14:49.748Z,2.67
2022-11-25T10:17:24.057Z,2.40
2022-11-25T10:19:55.251Z,2.17
2022-11-25T10:22:30.961Z,2.83
2022-11-25T10:25:16.768Z,2.70
2022-11-25T10:28:02.469Z,2.40
2022-11-25T10:30:45.791Z,2.03
2022-11-25T10:33:24.872Z,2.10
2022-11-25T10:36:13.081Z,2.42
2022-11-25T10:38:45.448Z,2.28
2022-11-25T10:41:18.513Z,1.98
2022-11-25T10:43:49.281Z,1.98
2022-11-25T10:47:10.989Z,1.52
2022-11-25T10:49:47.938Z,1.70
2022-11-25T10:52:15.366Z,2.08
2022-11-25T10:54:42.606Z,1.83
2022-11-25T10:57:21.361Z,2.10
2022-11-25T10:59:58.012Z,1.80
2022-11-25T11:02:30.782Z,1.90
2022-11-25T11:05:14.221Z,2.30
2022-11-25T11:07:44.196Z,2.03
2022-11-25T11:10:15.292Z,1.90
2022-11-25T11:13:01.326Z,1.92
2022-11-25T11:15:34.227Z,1.95
2022-11-25T11:18:34.513Z,2.47
2022-11-25T11:21:01.548Z,2.22
2022-11-25T11:23:29.500Z,2.65
2022-11-25T11:26:05.930Z,2.63
2022-11-25T11:28:36.930Z,2.30
2022-11-25T11:31:25.097Z,1.95
2022-11-25T11:33:59.176Z,2.20
2022-11-25T11:36:34.784Z,2.45
2022-11-25T11:39:30.454Z,1.98
2022-11-25T11:42:24.003Z,2.13
2022-11-25T11:45:05.766Z,2.53
2022-11-25T11:48:07.991Z,2.00
2022-11-25T11:50:35.016Z,2.60
2022-11-25T11:53:35.521Z,2.75
2022-11-25T11:56:33.622Z,2.47
2022-11-25T11:59:16.505Z,2.25
2022-11-25T12:02:24.388Z,2.42
2022-11-25T12:05:17.871Z,2.85
2022-11-25T12:07:52.989Z,2.40
2022-11-25T12:10:28.770Z,2.72
2022-11-25T12:13:03.401Z,2.55
2022-11-25T12:16:10.298Z,1.90
2022-11-25T12:18:52.461Z,2.40
2022-11-25T12:21:28.274Z,2.25
2022-11-25T12:24:13.565Z,2.22
2022-11-25T12:27:05.257Z,2.20
2022-11-25T12:30:02.323Z,2.97
2022-11-25T12:33:03.600Z,2.22
2022-11-25T12:36:01.101Z,2.20
2022-11-25T12:38:46.268Z,2.35
2022-11-25T12:41:36.063Z,2.17
2022-11-25T12:44:20.058Z,2.05
2022-11-25T12:46:49.049Z,2.65
2022-11-25T12:49:32.310Z,2.63
2022-11-25T12:52:19.867Z,2.78
2022-11-25T12:55:08.001Z,2.40
2022-11-25T12:58:16.068Z,2.60
2022-11-25T13:00:51.446Z,2.80
2022-11-25T13:03:56.404Z,2.40
2022-11-25T13:06:30.893Z,2.78
2022-11-25T13:09:31.930Z,2.63
2022-11-25T13:12:23.089Z,2.28
2022-11-25T13:15:24.214Z,2.92
2022-11-25T13:17:57.499Z,2.67
2022-11-25T13:20:35.588Z,2.47
2022-11-25T13:23:05.462Z,2.22
2022-11-25T13:25:33.375Z,2.95
2022-11-25T13:28:02.646Z,3.00
2022-11-25T13:30:32.442Z,3.17
2022-11-25T13:33:22.569Z,3.30
2022-11-25T13:35:56.871Z,2.65
2022-11-25T13:38:29.643Z,2.53
2022-11-25T13:40:59.437Z,3.10
2022-11-25T13:43:26.876Z,2.78
2022-11-25T13:45:55.372Z,2.83
2022-11-25T13:48:33.095Z,3.10
2022-11-25T13:51:22.538Z,2.50
2022-11-25T13:54:00.289Z,2.92
2022-11-25T13:56:29.013Z,3.08
2022-11-25T13:59:37.850Z,2.40
2022-11-25T14:02:28.068Z,2.63
2022-11-25T14:05:25.435Z,2.70
2022-11-25T14:08:07.733Z,2.20
2022-11-25T14:10:49.639Z,2.60
2022-11-25T14:13:26.583Z,2.67
2022-11-25T14:16:29.919Z,1.92
2022-11-25T14:19:50.270Z,3.45
2022-11-25T14:22:28.044Z,3.60
2022-11-25T14:25:18.761Z,2.70
2022-11-25T14:27:48.417Z,2.85
2022-11-25T14:30:16.393Z,3.40
2022-11-25T14:32:57.907Z,3.00
2022-11-25T14:35:34.515Z,2.15
2022-11-25T14:38:07.118Z,2.75
2022-11-25T14:40:57.981Z,2.60
2022-11-25T14:43:26.550Z,3.17
2022-11-25T14:46:16.942Z,2.75
2022-11-25T14:48:44.774Z,2.78
2022-11-25T14:51:18.600Z,3.63
2022-11-25T14:53:48.768Z,2.95
2022-11-25T14:56:22.412Z,3.10
2022-11-25T14:58:51.697Z,3.78
2022-11-25T15:01:27.168Z,3.05
2022-11-25T15:04:19.253Z,3.35
2022-11-25T15:06:56.811Z,2.65
2022-11-25T15:09:29.301Z,3.05
2022-11-25T15:12:02.548Z,3.80
2022-11-25T15:14:35.174Z,2.50
2022-11-25T15:17:08.213Z,5.93
2022-11-25T15:19:36.884Z,3.45
2022-11-25T15:22:23.878Z,2.90
2022-11-25T15:24:55.642Z,2.80
2022-11-25T15:27:27.985Z,3.08
2022-11-25T15:29:57.285Z,3.22
2022-11-25T15:32:33.881Z,3.25
2022-11-25T15:35:05.163Z,3.05
2022-11-25T15:37:32.352Z,2.88
2022-11-25T15:40:36.750Z,3.00
2022-11-25T15:43:19.827Z,2.63
2022-11-25T15:45:53.612Z,3.60
2022-11-25T15:48:37.948Z,3.42
2022-11-25T15:51:23.969Z,2.95
2022-11-25T15:53:54.729Z,2.92
2022-11-25T15:56:26.559Z,3.35
2022-11-25T15:58:57.389Z,3.13
2022-11-25T16:01:31.006Z,2.72
2022-11-25T16:04:23.403Z,3.25
2022-11-25T16:07:00.589Z,3.22
2022-11-25T16:09:31.419Z,3.22
2022-11-25T16:12:07.743Z,3.83
2022-11-25T16:14:37.304Z,3.25
2022-11-25T16:17:09.424Z,3.70
2022-11-25T16:19:46.929Z,3.85
2022-11-25T16:22:19.723Z,3.58
2022-11-25T16:24:50.783Z,3.63
2022-11-25T16:27:26.751Z,3.70
2022-11-25T16:30:05.720Z,3.33
2022-11-25T16:32:33.609Z,4.15
2022-11-25T16:35:15.928Z,4.47
2022-11-25T16:37:48.494Z,4.57
2022-11-25T16:40:17.740Z,4.60
2022-11-25T16:42:49.491Z,4.00
2022-11-25T16:45:23.951Z,4.30
2022-11-25T16:47:50.987Z,4.45
2022-11-25T16:50:19.752Z,4.65
2022-11-25T16:52:46.914Z,4.05
2022-11-25T16:55:14.038Z,4.40
2022-11-25T16:57:43.124Z,4.90
2022-11-25T17:00:16.953Z,4.93
2022-11-25T17:02:45.004Z,4.85
2022-11-25T17:05:24.030Z,4.65
2022-11-25T17:07:51.723Z,5.18
2022-11-25T17:10:20.568Z,5.43
2022-11-25T17:12:48.506Z,4.95
2022-11-25T17:15:24.505Z,3.92
2022-11-25T17:17:51.696Z,4.63
2022-11-25T17:20:23.805Z,4.03
2022-11-25T17:22:51.353Z,5.30
2022-11-25T17:25:18.528Z,5.38
2022-11-25T17:27:46.204Z,4.95
2022-11-25T17:30:24.521Z,4.45
2022-11-25T17:32:58.072Z,4.65
2022-11-25T17:35:25.015Z,4.78
2022-11-25T17:37:51.857Z,4.60
2022-11-25T17:40:18.873Z,4.57
2022-11-25T17:42:48.785Z,4.20
2022-11-25T17:45:18.184Z,5.13
2022-11-25T17:47:46.282Z,5.25
2022-11-25T17:50:18.343Z,6.70
2022-11-25T17:52:45.664Z,4.45
2022-11-25T17:55:13.038Z,4.50
2022-11-25T17:57:40.107Z,4.93
2022-11-25T18:00:12.025Z,5.30
2022-11-25T18:02:39.878Z,5.22
2022-11-25T18:05:21.922Z,4.82
2022-11-25T18:07:49.252Z,5.25
2022-11-25T18:10:18.837Z,5.32
2022-11-25T18:12:47.498Z,4.50
2022-11-25T18:15:26.129Z,4.43
2022-11-25T18:18:16.508Z,5.20
2022-11-25T18:20:43.302Z,4.93
2022-11-25T18:23:10.108Z,5.13
2022-11-25T18:25:39.302Z,6.22
2022-11-25T18:28:07.182Z,6.85
2022-11-25T18:30:36.293Z,7.53
2022-11-25T18:33:06.365Z,7.55
2022-11-25T18:35:36.565Z,8.10
2022-11-25T18:38:05.011Z,8.60
2022-11-25T18:40:32.080Z,7.75
2022-11-25T18:43:02.274Z,6.63
2022-11-25T18:45:33.285Z,7.75
2022-11-25T18:48:00.399Z,7.05
2022-11-25T18:50:28.094Z,7.78
2022-11-25T18:52:55.142Z,6.32
2022-11-25T18:55:23.553Z,7.22
2022-11-25T18:57:51.996Z,7.80
2022-11-25T19:00:32.362Z,7.85
2022-11-25T19:03:02.407Z,8.73
2022-11-25T19:05:34.209Z,7.53
2022-11-25T19:08:01.141Z,7.63
2022-11-25T19:10:31.892Z,9.05
2022-11-25T19:13:02.967Z,8.43
2022-11-25T19:15:33.113Z,9.38
2022-11-25T19:18:03.274Z,8.05
2022-11-25T19:20:32.371Z,8.38
2022-11-25T19:23:01.489Z,8.75
2022-11-25T19:25:29.123Z,9.43
2022-11-25T19:28:00.134Z,10.10
2022-11-25T19:30:31.094Z,10.38
2022-11-25T19:33:01.312Z,11.60
2022-11-25T19:35:37.642Z,11.07
2022-11-25T19:38:26.099Z,15.30
2022-11-25T19:40:59.179Z,16.92
2022-11-25T19:43:29.871Z,15.98
2022-11-25T19:45:57.644Z,16.83
2022-11-25T19:48:27.207Z,16.25
2022-11-25T19:50:59.689Z,15.98
2022-11-25T19:53:33.388Z,17.67
2022-11-25T19:56:06.666Z,17.80
2022-11-25T19:58:33.630Z,17.25
2022-11-25T20:01:03.994Z,17.30
2022-11-25T20:03:31.634Z,18.13
2022-11-25T20:05:59.140Z,19.55
2022-11-25T20:08:28.859Z,19.80
2022-11-25T20:10:56.600Z,17.92
2022-11-25T20:13:24.585Z,18.30
2022-11-25T20:15:52.471Z,19.58
2022-11-25T20:18:23.321Z,19.27
2022-11-25T20:20:58.573Z,19.67
2022-11-25T20:23:36.283Z,18.80
2022-11-25T20:26:31.647Z,18.33
2022-11-25T20:28:58.539Z,17.02
2022-11-25T20:31:30.148Z,16.88
2022-11-25T20:33:57.509Z,15.27
2022-11-25T20:36:33.230Z,14.80
2022-11-25T20:39:02.059Z,15.52
2022-11-25T20:41:30.130Z,15.75
2022-11-25T20:43:58.696Z,14.80
2022-11-25T20:46:29.996Z,14.25
2022-11-25T20:48:59.839Z,15.38
2022-11-25T20:51:26.700Z,14.60
2022-11-25T20:53:56.582Z,15.20
2022-11-25T20:56:25.476Z,15.70
2022-11-25T20:58:52.487Z,14.35
2022-11-25T21:01:19.475Z,14.90
2022-11-25T21:03:48.204Z,14.82
2022-11-25T21:06:21.268Z,15.52
2022-11-25T21:08:50.440Z,15.13
2022-11-25T21:11:18.290Z,14.48
2022-11-25T21:13:46.420Z,13.73
2022-11-25T21:16:13.661Z,13.23
2022-11-25T21:18:41.406Z,13.05
2022-11-25T21:21:17.939Z,13.32
2022-11-25T21:23:47.506Z,13.95
2022-11-25T21:26:22.280Z,12.30
2022-11-25T21:28:51.981Z,12.20
2022-11-25T21:31:23.795Z,11.73
2022-11-25T21:33:53.099Z,11.23
2022-11-25T21:36:27.224Z,12.23
2022-11-25T21:39:02.530Z,11.63
2022-11-25T21:41:29.445Z,11.85
2022-11-25T21:43:56.458Z,10.80
2022-11-25T21:46:26.698Z,11.07
2022-11-25T21:48:53.659Z,12.20
2022-11-25T21:51:26.945Z,11.48
2022-11-25T21:53:54.614Z,10.63
2022-11-25T21:56:30.892Z,10.38
2022-11-25T21:58:59.832Z,11.68
2022-11-25T22:01:27.627Z,10.80
2022-11-25T22:03:54.763Z,11.38
2022-11-25T22:06:23.194Z,12.05
2022-11-25T22:08:50.355Z,11.15
2022-11-25T22:11:21.107Z,11.63
2022-11-25T22:13:49.050Z,11.27
2022-11-25T22:16:27.830Z,12.68
2022-11-25T22:18:55.145Z,11.50
2022-11-25T22:21:22.033Z,13.13
2022-11-25T22:23:48.949Z,12.63
2022-11-25T22:26:33.163Z,11.95
2022-11-25T22:29:01.001Z,11.85
2022-11-25T22:31:28.417Z,11.27
2022-11-25T22:33:56.030Z,13.02
2022-11-25T22:36:28.765Z,12.07
2022-11-25T22:38:58.338Z,11.63
2022-11-25T22:41:25.335Z,11.40
2022-11-25T22:43:52.863Z,11.82
2022-11-25T22:46:19.899Z,10.23
2022-11-25T22:48:47.046Z,10.48
2022-11-25T22:51:21.283Z,10.65
2022-11-25T22:53:48.182Z,10.90
2022-11-25T22:56:19.361Z,10.30
2022-11-25T22:58:46.705Z,10.05
2022-11-25T23:01:15.323Z,11.27
2022-11-25T23:03:43.962Z,10.95
2022-11-25T23:06:12.771Z,10.43
2022-11-25T23:08:39.789Z,10.15
2022-11-25T23:11:06.925Z,9.45
2022-11-25T23:13:33.732Z,9.95
2022-11-25T23:16:03.947Z,10.10
2022-11-25T23:18:38.626Z,9.80
2022-11-25T23:21:07.617Z,11.20
2022-11-25T23:23:34.466Z,11.05
2022-11-25T23:26:01.316Z,10.23
2022-11-25T23:28:28.252Z,10.25
2022-11-25T23:31:00.758Z,8.77
2022-11-25T23:33:43.770Z,10.00
2022-11-25T23:36:25.609Z,9.38
2022-11-25T23:38:57.860Z,8.98
2022-11-25T23:41:31.088Z,8.52
2022-11-25T23:44:09.433Z,7.95
2022-11-25T23:46:37.346Z,8.20
2022-11-25T23:49:06.848Z,8.70
2022-11-25T23:51:33.953Z,7.78
2022-11-25T23:54:00.862Z,7.82
2022-11-25T23:56:28.573Z,8.35
2022-11-25T23:58:55.582Z,8.27
